sensor_id;sensor_type;location;lat;lon;timestamp;P1;durP1;ratioP1;P2;durP2;ratioP2
665;SDS011;315;48.738;9.126;2022-12-18T00:01:50;57.60;;;29.50;;
665;SDS011;315;48.738;9.126;2022-12-18T00:04:23;67.57;;;27.83;;
665;SDS011;315;48.738;9.126;2022-12-18T00:06:49;51.13;;;27.93;;
665;SDS011;315;48.738;9.126;2022-12-18T00:09:15;52.23;;;30.57;;
665;SDS011;315;48.738;9.126;2022-12-18T00:11:41;51.30;;;28.60;;
665;SDS011;315;48.738;9.126;2022-12-18T00:14:06;58.90;;;32.57;;
665;SDS011;315;48.738;9.126;2022-12-18T00:16:34;59.83;;;29.47;;
665;SDS011;315;48.738;9.126;2022-12-18T00:19:01;58.40;;;33.17;;
665;SDS011;315;48.738;9.126;2022-12-18T00:21:28;58.30;;;31.07;;
665;SDS011;315;48.738;9.126;2022-12-18T00:23:54;60.00;;;29.90;;
665;SDS011;315;48.738;9.126;2022-12-18T00:26:24;50.37;;;30.77;;
665;SDS011;315;48.738;9.126;2022-12-18T00:28:53;56.80;;;31.90;;
665;SDS011;315;48.738;9.126;2022-12-18T00:31:21;58.07;;;30.47;;
665;SDS011;315;48.738;9.126;2022-12-18T00:33:48;57.70;;;27.67;;
665;SDS011;315;48.738;9.126;2022-12-18T00:36:15;64.50;;;32.63;;
665;SDS011;315;48.738;9.126;2022-12-18T00:38:43;51.50;;;28.73;;
665;SDS011;315;48.738;9.126;2022-12-18T00:41:09;47.80;;;27.73;;
665;SDS011;315;48.738;9.126;2022-12-18T00:43:36;61.63;;;32.13;;
665;SDS011;315;48.738;9.126;2022-12-18T00:46:03;63.63;;;29.67;;
665;SDS011;315;48.738;9.126;2022-12-18T00:48:29;56.67;;;30.37;;
665;SDS011;315;48.738;9.126;2022-12-18T00:50:55;55.53;;;31.13;;
665;SDS011;315;48.738;9.126;2022-12-18T00:53:20;58.00;;;29.90;;
665;SDS011;315;48.738;9.126;2022-12-18T00:55:46;50.73;;;29.67;;
665;SDS011;315;48.738;9.126;2022-12-18T00:58:12;52.97;;;28.17;;
665;SDS011;315;48.738;9.126;2022-12-18T01:00:39;50.97;;;26.50;;
665;SDS011;315;48.738;9.126;2022-12-18T01:03:05;56.27;;;30.93;;
665;SDS011;315;48.738;9.126;2022-12-18T01:05:31;50.73;;;27.17;;
665;SDS011;315;48.738;9.126;2022-12-18T01:07:57;60.33;;;29.00;;
665;SDS011;315;48.738;9.126;2022-12-18T01:10:23;55.40;;;28.53;;
665;SDS011;315;48.738;9.126;2022-12-18T01:12:49;53.83;;;30.10;;
665;SDS011;315;48.738;9.126;2022-12-18T01:15:15;50.67;;;26.77;;
665;SDS011;315;48.738;9.126;2022-12-18T01:17:42;53.80;;;26.70;;
665;SDS011;315;48.738;9.126;2022-12-18T01:20:08;56.57;;;31.30;;
665;SDS011;315;48.738;9.126;2022-12-18T01:22:35;49.50;;;28.43;;
665;SDS011;315;48.738;9.126;2022-12-18T01:25:02;55.03;;;29.40;;
665;SDS011;315;48.738;9.126;2022-12-18T01:27:29;53.60;;;27.20;;
665;SDS011;315;48.738;9.126;2022-12-18T01:29:55;59.30;;;29.53;;
665;SDS011;315;48.738;9.126;2022-12-18T01:32:20;61.43;;;29.73;;
665;SDS011;315;48.738;9.126;2022-12-18T01:34:46;54.67;;;28.93;;
665;SDS011;315;48.738;9.126;2022-12-18T01:37:12;49.23;;;26.50;;
665;SDS011;315;48.738;9.126;2022-12-18T01:39:38;45.90;;;26.33;;
665;SDS011;315;48.738;9.126;2022-12-18T01:42:05;44.20;;;27.10;;
665;SDS011;315;48.738;9.126;2022-12-18T01:50:13;50.37;;;24.97;;
665;SDS011;315;48.738;9.126;2022-12-18T01:52:40;48.53;;;25.50;;
665;SDS011;315;48.738;9.126;2022-12-18T01:55:08;47.73;;;24.50;;
665;SDS011;315;48.738;9.126;2022-12-18T01:57:35;45.13;;;24.93;;
665;SDS011;315;48.738;9.126;2022-12-18T02:00:07;50.73;;;25.03;;
665;SDS011;315;48.738;9.126;2022-12-18T02:02:38;46.30;;;25.90;;
665;SDS011;315;48.738;9.126;2022-12-18T02:05:05;45.47;;;24.17;;
665;SDS011;315;48.738;9.126;2022-12-18T02:07:36;44.47;;;24.80;;
665;SDS011;315;48.738;9.126;2022-12-18T02:10:07;43.27;;;22.63;;
665;SDS011;315;48.738;9.126;2022-12-18T02:12:52;34.53;;;23.20;;
665;SDS011;315;48.738;9.126;2022-12-18T02:18:41;42.40;;;20.00;;
665;SDS011;315;48.738;9.126;2022-12-18T02:26:50;37.63;;;22.70;;
665;SDS011;315;48.738;9.126;2022-12-18T02:29:26;39.87;;;20.00;;
665;SDS011;315;48.738;9.126;2022-12-18T02:31:56;46.40;;;24.87;;
665;SDS011;315;48.738;9.126;2022-12-18T02:34:31;37.93;;;22.87;;
665;SDS011;315;48.738;9.126;2022-12-18T02:37:02;39.80;;;20.40;;
665;SDS011;315;48.738;9.126;2022-12-18T02:39:30;32.60;;;18.50;;
665;SDS011;315;48.738;9.126;2022-12-18T02:41:59;32.20;;;19.27;;
665;SDS011;315;48.738;9.126;2022-12-18T02:44:27;33.97;;;20.40;;
665;SDS011;315;48.738;9.126;2022-12-18T02:46:53;37.70;;;21.90;;
665;SDS011;315;48.738;9.126;2022-12-18T02:49:35;36.70;;;19.90;;
665;SDS011;315;48.738;9.126;2022-12-18T02:59:56;29.27;;;17.20;;
665;SDS011;315;48.738;9.126;2022-12-18T03:02:48;35.60;;;21.20;;
665;SDS011;315;48.738;9.126;2022-12-18T03:05:27;32.40;;;20.40;;
665;SDS011;315;48.738;9.126;2022-12-18T03:07:59;27.97;;;18.80;;
665;SDS011;315;48.738;9.126;2022-12-18T03:10:31;35.33;;;19.03;;
665;SDS011;315;48.738;9.126;2022-12-18T03:13:04;37.47;;;20.40;;
665;SDS011;315;48.738;9.126;2022-12-18T03:15:35;42.03;;;19.97;;
665;SDS011;315;48.738;9.126;2022-12-18T03:18:15;34.20;;;19.93;;
665;SDS011;315;48.738;9.126;2022-12-18T03:20:44;41.53;;;21.53;;
665;SDS011;315;48.738;9.126;2022-12-18T03:23:13;34.80;;;20.30;;
665;SDS011;315;48.738;9.126;2022-12-18T03:25:42;32.67;;;19.53;;
665;SDS011;315;48.738;9.126;2022-12-18T03:28:12;37.20;;;20.03;;
665;SDS011;315;48.738;9.126;2022-12-18T03:30:41;37.93;;;18.93;;
665;SDS011;315;48.738;9.126;2022-12-18T03:33:27;35.63;;;18.97;;
665;SDS011;315;48.738;9.126;2022-12-18T03:35:59;29.67;;;19.17;;
665;SDS011;315;48.738;9.126;2022-12-18T03:38:25;37.33;;;21.67;;
665;SDS011;315;48.738;9.126;2022-12-18T03:43:20;44.17;;;21.87;;
665;SDS011;315;48.738;9.126;2022-12-18T03:46:03;37.17;;;20.00;;
665;SDS011;315;48.738;9.126;2022-12-18T03:48:37;39.00;;;21.00;;
665;SDS011;315;48.738;9.126;2022-12-18T03:51:10;33.10;;;19.23;;
665;SDS011;315;48.738;9.126;2022-12-18T03:53:51;34.57;;;18.10;;
665;SDS011;315;48.738;9.126;2022-12-18T03:56:18;32.93;;;18.57;;
665;SDS011;315;48.738;9.126;2022-12-18T03:58:47;39.17;;;21.03;;
665;SDS011;315;48.738;9.126;2022-12-18T04:01:15;26.67;;;19.57;;
665;SDS011;315;48.738;9.126;2022-12-18T04:03:42;36.33;;;20.13;;
665;SDS011;315;48.738;9.126;2022-12-18T04:06:11;33.00;;;18.97;;
665;SDS011;315;48.738;9.126;2022-12-18T04:08:38;26.83;;;16.63;;
665;SDS011;315;48.738;9.126;2022-12-18T04:11:05;32.07;;;18.13;;
665;SDS011;315;48.738;9.126;2022-12-18T04:13:37;31.87;;;18.80;;
665;SDS011;315;48.738;9.126;2022-12-18T04:16:03;26.90;;;17.03;;
665;SDS011;315;48.738;9.126;2022-12-18T04:18:29;28.33;;;18.97;;
665;SDS011;315;48.738;9.126;2022-12-18T04:20:55;28.30;;;17.63;;
665;SDS011;315;48.738;9.126;2022-12-18T04:23:21;34.27;;;19.50;;
665;SDS011;315;48.738;9.126;2022-12-18T04:25:46;34.40;;;19.80;;
665;SDS011;315;48.738;9.126;2022-12-18T04:28:12;27.70;;;19.27;;
665;SDS011;315;48.738;9.126;2022-12-18T04:30:38;28.27;;;19.23;;
665;SDS011;315;48.738;9.126;2022-12-18T04:33:07;35.73;;;19.50;;
665;SDS011;315;48.738;9.126;2022-12-18T04:35:38;34.67;;;18.50;;
665;SDS011;315;48.738;9.126;2022-12-18T04:38:05;33.87;;;17.60;;
665;SDS011;315;48.738;9.126;2022-12-18T04:40:35;40.03;;;17.97;;
665;SDS011;315;48.738;9.126;2022-12-18T04:43:01;35.23;;;20.93;;
665;SDS011;315;48.738;9.126;2022-12-18T04:45:28;32.17;;;18.70;;
665;SDS011;315;48.738;9.126;2022-12-18T04:47:54;32.80;;;19.00;;
665;SDS011;315;48.738;9.126;2022-12-18T04:50:22;44.93;;;21.00;;
665;SDS011;315;48.738;9.126;2022-12-18T04:52:48;38.73;;;18.60;;
665;SDS011;315;48.738;9.126;2022-12-18T04:55:13;42.07;;;23.33;;
665;SDS011;315;48.738;9.126;2022-12-18T04:57:39;40.17;;;21.73;;
665;SDS011;315;48.738;9.126;2022-12-18T05:00:04;40.43;;;22.60;;
665;SDS011;315;48.738;9.126;2022-12-18T05:02:30;35.50;;;22.33;;
665;SDS011;315;48.738;9.126;2022-12-18T05:04:56;34.23;;;20.60;;
665;SDS011;315;48.738;9.126;2022-12-18T05:07:22;36.23;;;20.73;;
665;SDS011;315;48.738;9.126;2022-12-18T05:09:47;32.83;;;19.83;;
665;SDS011;315;48.738;9.126;2022-12-18T05:12:13;46.47;;;22.97;;
665;SDS011;315;48.738;9.126;2022-12-18T05:14:38;31.20;;;17.87;;
665;SDS011;315;48.738;9.126;2022-12-18T05:17:04;40.50;;;20.27;;
665;SDS011;315;48.738;9.126;2022-12-18T05:19:29;46.13;;;22.03;;
665;SDS011;315;48.738;9.126;2022-12-18T05:21:55;35.47;;;22.20;;
665;SDS011;315;48.738;9.126;2022-12-18T05:24:20;34.30;;;19.60;;
665;SDS011;315;48.738;9.126;2022-12-18T05:26:46;35.97;;;18.20;;
665;SDS011;315;48.738;9.126;2022-12-18T05:29:12;33.00;;;19.10;;
665;SDS011;315;48.738;9.126;2022-12-18T05:31:37;39.97;;;22.10;;
665;SDS011;315;48.738;9.126;2022-12-18T05:34:03;31.90;;;19.10;;
665;SDS011;315;48.738;9.126;2022-12-18T05:36:29;38.73;;;21.20;;
665;SDS011;315;48.738;9.126;2022-12-18T05:38:55;40.37;;;21.43;;
665;SDS011;315;48.738;9.126;2022-12-18T05:41:20;40.77;;;21.30;;
665;SDS011;315;48.738;9.126;2022-12-18T05:43:46;31.63;;;19.67;;
665;SDS011;315;48.738;9.126;2022-12-18T05:46:14;39.63;;;22.63;;
665;SDS011;315;48.738;9.126;2022-12-18T05:48:42;36.20;;;22.03;;
665;SDS011;315;48.738;9.126;2022-12-18T05:51:09;38.67;;;19.87;;
665;SDS011;315;48.738;9.126;2022-12-18T05:53:37;34.60;;;18.00;;
665;SDS011;315;48.738;9.126;2022-12-18T05:56:04;31.80;;;20.40;;
665;SDS011;315;48.738;9.126;2022-12-18T05:58:31;35.93;;;19.07;;
665;SDS011;315;48.738;9.126;2022-12-18T06:00:58;34.63;;;18.63;;
665;SDS011;315;48.738;9.126;2022-12-18T06:03:30;36.50;;;21.03;;
665;SDS011;315;48.738;9.126;2022-12-18T06:05:56;41.30;;;20.73;;
665;SDS011;315;48.738;9.126;2022-12-18T06:08:21;33.77;;;21.17;;
665;SDS011;315;48.738;9.126;2022-12-18T06:10:49;28.57;;;19.57;;
665;SDS011;315;48.738;9.126;2022-12-18T06:13:16;31.07;;;19.07;;
665;SDS011;315;48.738;9.126;2022-12-18T06:15:42;36.63;;;19.00;;
665;SDS011;315;48.738;9.126;2022-12-18T06:18:07;38.23;;;18.60;;
665;SDS011;315;48.738;9.126;2022-12-18T06:20:33;29.23;;;17.53;;
665;SDS011;315;48.738;9.126;2022-12-18T06:23:01;33.30;;;20.10;;
665;SDS011;315;48.738;9.126;2022-12-18T06:25:27;36.70;;;21.00;;
665;SDS011;315;48.738;9.126;2022-12-18T06:27:52;31.87;;;18.87;;
665;SDS011;315;48.738;9.126;2022-12-18T06:30:18;34.50;;;18.50;;
665;SDS011;315;48.738;9.126;2022-12-18T06:32:43;34.50;;;20.20;;
665;SDS011;315;48.738;9.126;2022-12-18T06:35:09;39.83;;;21.60;;
665;SDS011;315;48.738;9.126;2022-12-18T06:37:35;32.17;;;19.67;;
665;SDS011;315;48.738;9.126;2022-12-18T06:40:00;41.17;;;21.17;;
665;SDS011;315;48.738;9.126;2022-12-18T06:42:26;33.23;;;19.03;;
665;SDS011;315;48.738;9.126;2022-12-18T06:44:51;44.87;;;22.07;;
665;SDS011;315;48.738;9.126;2022-12-18T06:47:17;34.57;;;19.80;;
665;SDS011;315;48.738;9.126;2022-12-18T06:49:43;31.40;;;18.53;;
665;SDS011;315;48.738;9.126;2022-12-18T06:52:09;34.60;;;20.47;;
665;SDS011;315;48.738;9.126;2022-12-18T06:54:34;30.30;;;17.83;;
665;SDS011;315;48.738;9.126;2022-12-18T06:57:00;35.50;;;20.73;;
665;SDS011;315;48.738;9.126;2022-12-18T06:59:25;28.63;;;18.47;;
665;SDS011;315;48.738;9.126;2022-12-18T07:01:51;36.07;;;21.53;;
665;SDS011;315;48.738;9.126;2022-12-18T07:04:16;35.90;;;20.47;;
665;SDS011;315;48.738;9.126;2022-12-18T07:06:42;40.57;;;18.73;;
665;SDS011;315;48.738;9.126;2022-12-18T07:09:07;35.90;;;22.53;;
665;SDS011;315;48.738;9.126;2022-12-18T07:11:33;41.13;;;21.07;;
665;SDS011;315;48.738;9.126;2022-12-18T07:13:58;35.33;;;18.90;;
665;SDS011;315;48.738;9.126;2022-12-18T07:16:24;28.40;;;17.23;;
665;SDS011;315;48.738;9.126;2022-12-18T07:18:50;32.40;;;20.23;;
665;SDS011;315;48.738;9.126;2022-12-18T07:21:17;35.10;;;18.90;;
665;SDS011;315;48.738;9.126;2022-12-18T07:23:44;42.93;;;21.50;;
665;SDS011;315;48.738;9.126;2022-12-18T07:26:13;33.43;;;18.20;;
665;SDS011;315;48.738;9.126;2022-12-18T07:28:40;29.00;;;18.67;;
665;SDS011;315;48.738;9.126;2022-12-18T07:31:08;35.53;;;20.90;;
665;SDS011;315;48.738;9.126;2022-12-18T07:33:39;44.93;;;21.93;;
665;SDS011;315;48.738;9.126;2022-12-18T07:36:05;47.17;;;21.50;;
665;SDS011;315;48.738;9.126;2022-12-18T07:38:33;31.03;;;20.73;;
665;SDS011;315;48.738;9.126;2022-12-18T07:41:00;35.10;;;19.87;;
665;SDS011;315;48.738;9.126;2022-12-18T07:43:26;32.83;;;18.83;;
665;SDS011;315;48.738;9.126;2022-12-18T07:45:52;30.50;;;18.93;;
665;SDS011;315;48.738;9.126;2022-12-18T07:48:17;35.63;;;20.67;;
665;SDS011;315;48.738;9.126;2022-12-18T07:50:43;37.33;;;20.73;;
665;SDS011;315;48.738;9.126;2022-12-18T07:53:08;31.53;;;20.40;;
665;SDS011;315;48.738;9.126;2022-12-18T07:55:34;34.03;;;19.40;;
665;SDS011;315;48.738;9.126;2022-12-18T07:58:01;43.17;;;20.87;;
665;SDS011;315;48.738;9.126;2022-12-18T08:00:27;35.80;;;24.07;;
665;SDS011;315;48.738;9.126;2022-12-18T08:02:53;32.67;;;20.70;;
665;SDS011;315;48.738;9.126;2022-12-18T08:05:19;30.90;;;19.77;;
665;SDS011;315;48.738;9.126;2022-12-18T08:07:45;34.50;;;19.97;;
665;SDS011;315;48.738;9.126;2022-12-18T08:10:11;38.53;;;22.20;;
665;SDS011;315;48.738;9.126;2022-12-18T08:12:37;29.50;;;19.47;;
665;SDS011;315;48.738;9.126;2022-12-18T08:15:03;33.57;;;21.87;;
665;SDS011;315;48.738;9.126;2022-12-18T08:17:29;33.60;;;20.57;;
665;SDS011;315;48.738;9.126;2022-12-18T08:19:54;31.20;;;21.87;;
665;SDS011;315;48.738;9.126;2022-12-18T08:22:20;32.40;;;22.43;;
665;SDS011;315;48.738;9.126;2022-12-18T08:24:46;41.90;;;25.43;;
665;SDS011;315;48.738;9.126;2022-12-18T08:27:11;31.33;;;23.57;;
665;SDS011;315;48.738;9.126;2022-12-18T08:29:37;30.57;;;21.80;;
665;SDS011;315;48.738;9.126;2022-12-18T08:32:03;35.57;;;21.10;;
665;SDS011;315;48.738;9.126;2022-12-18T08:34:28;32.10;;;20.50;;
665;SDS011;315;48.738;9.126;2022-12-18T08:36:54;32.50;;;22.57;;
665;SDS011;315;48.738;9.126;2022-12-18T08:39:19;28.60;;;21.30;;
665;SDS011;315;48.738;9.126;2022-12-18T08:41:45;31.93;;;22.40;;
665;SDS011;315;48.738;9.126;2022-12-18T08:44:30;30.20;;;21.87;;
665;SDS011;315;48.738;9.126;2022-12-18T08:47:06;26.90;;;20.80;;
665;SDS011;315;48.738;9.126;2022-12-18T08:49:33;31.43;;;22.60;;
665;SDS011;315;48.738;9.126;2022-12-18T08:51:59;28.73;;;21.90;;
665;SDS011;315;48.738;9.126;2022-12-18T08:54:25;27.90;;;22.23;;
665;SDS011;315;48.738;9.126;2022-12-18T08:56:51;27.13;;;21.00;;
665;SDS011;315;48.738;9.126;2022-12-18T08:59:17;33.67;;;23.27;;
665;SDS011;315;48.738;9.126;2022-12-18T09:01:43;28.97;;;23.17;;
665;SDS011;315;48.738;9.126;2022-12-18T09:04:09;30.60;;;22.87;;
665;SDS011;315;48.738;9.126;2022-12-18T09:06:35;30.27;;;22.83;;
665;SDS011;315;48.738;9.126;2022-12-18T09:09:02;29.90;;;21.37;;
665;SDS011;315;48.738;9.126;2022-12-18T09:11:28;27.90;;;21.63;;
665;SDS011;315;48.738;9.126;2022-12-18T09:13:54;34.23;;;23.07;;
665;SDS011;315;48.738;9.126;2022-12-18T09:16:21;30.33;;;22.50;;
665;SDS011;315;48.738;9.126;2022-12-18T09:18:48;29.90;;;22.63;;
665;SDS011;315;48.738;9.126;2022-12-18T09:21:15;30.93;;;21.23;;
665;SDS011;315;48.738;9.126;2022-12-18T09:23:42;29.00;;;20.73;;
665;SDS011;315;48.738;9.126;2022-12-18T09:26:08;29.43;;;22.00;;
665;SDS011;315;48.738;9.126;2022-12-18T09:28:34;30.90;;;23.57;;
665;SDS011;315;48.738;9.126;2022-12-18T09:31:03;33.03;;;24.57;;
665;SDS011;315;48.738;9.126;2022-12-18T09:33:31;35.40;;;25.73;;
665;SDS011;315;48.738;9.126;2022-12-18T09:35:57;31.77;;;23.97;;
665;SDS011;315;48.738;9.126;2022-12-18T09:38:22;31.97;;;24.77;;
665;SDS011;315;48.738;9.126;2022-12-18T09:40:49;34.10;;;24.47;;
665;SDS011;315;48.738;9.126;2022-12-18T09:43:18;32.13;;;24.70;;
665;SDS011;315;48.738;9.126;2022-12-18T09:45:52;32.43;;;22.97;;
665;SDS011;315;48.738;9.126;2022-12-18T09:48:23;32.83;;;23.87;;
665;SDS011;315;48.738;9.126;2022-12-18T09:50:57;31.63;;;23.30;;
665;SDS011;315;48.738;9.126;2022-12-18T09:53:27;26.77;;;22.20;;
665;SDS011;315;48.738;9.126;2022-12-18T09:55:57;26.33;;;21.47;;
665;SDS011;315;48.738;9.126;2022-12-18T09:58:30;27.07;;;22.40;;
665;SDS011;315;48.738;9.126;2022-12-18T10:01:16;27.93;;;23.37;;
665;SDS011;315;48.738;9.126;2022-12-18T10:03:46;28.77;;;21.93;;
665;SDS011;315;48.738;9.126;2022-12-18T10:06:18;34.73;;;24.60;;
665;SDS011;315;48.738;9.126;2022-12-18T10:11:32;29.77;;;25.17;;
665;SDS011;315;48.738;9.126;2022-12-18T10:14:23;31.60;;;24.57;;
665;SDS011;315;48.738;9.126;2022-12-18T10:16:56;29.53;;;23.30;;
665;SDS011;315;48.738;9.126;2022-12-18T10:19:46;30.10;;;24.70;;
665;SDS011;315;48.738;9.126;2022-12-18T10:27:26;28.40;;;23.43;;
665;SDS011;315;48.738;9.126;2022-12-18T10:29:53;27.47;;;23.27;;
665;SDS011;315;48.738;9.126;2022-12-18T10:32:21;30.43;;;25.73;;
665;SDS011;315;48.738;9.126;2022-12-18T10:34:49;29.33;;;23.10;;
665;SDS011;315;48.738;9.126;2022-12-18T10:37:17;29.43;;;23.33;;
665;SDS011;315;48.738;9.126;2022-12-18T10:39:44;34.00;;;23.57;;
665;SDS011;315;48.738;9.126;2022-12-18T10:42:14;27.03;;;23.10;;
665;SDS011;315;48.738;9.126;2022-12-18T10:44:42;31.00;;;23.10;;
665;SDS011;315;48.738;9.126;2022-12-18T10:47:11;31.60;;;24.17;;
665;SDS011;315;48.738;9.126;2022-12-18T10:49:42;29.10;;;21.93;;
665;SDS011;315;48.738;9.126;2022-12-18T10:52:15;30.60;;;22.73;;
665;SDS011;315;48.738;9.126;2022-12-18T10:54:52;30.87;;;22.90;;
665;SDS011;315;48.738;9.126;2022-12-18T10:57:30;30.70;;;19.77;;
665;SDS011;315;48.738;9.126;2022-12-18T11:00:43;28.23;;;21.47;;
665;SDS011;315;48.738;9.126;2022-12-18T11:02:53;29.20;;;20.17;;
665;SDS011;315;48.738;9.126;2022-12-18T11:07:49;29.00;;;20.87;;
665;SDS011;315;48.738;9.126;2022-12-18T11:10:19;35.50;;;23.60;;
665;SDS011;315;48.738;9.126;2022-12-18T11:12:46;28.90;;;20.13;;
665;SDS011;315;48.738;9.126;2022-12-18T11:15:30;30.60;;;23.03;;
665;SDS011;315;48.738;9.126;2022-12-18T11:17:56;29.27;;;21.43;;
665;SDS011;315;48.738;9.126;2022-12-18T11:20:34;31.07;;;23.70;;
665;SDS011;315;48.738;9.126;2022-12-18T11:23:01;30.00;;;23.43;;
665;SDS011;315;48.738;9.126;2022-12-18T11:25:30;29.73;;;22.30;;
665;SDS011;315;48.738;9.126;2022-12-18T11:27:59;30.47;;;24.60;;
665;SDS011;315;48.738;9.126;2022-12-18T11:30:30;30.03;;;21.37;;
665;SDS011;315;48.738;9.126;2022-12-18T11:33:11;29.63;;;21.73;;
665;SDS011;315;48.738;9.126;2022-12-18T11:35:44;31.43;;;21.20;;
665;SDS011;315;48.738;9.126;2022-12-18T11:38:26;34.67;;;23.50;;
665;SDS011;315;48.738;9.126;2022-12-18T11:43:44;29.13;;;21.90;;
665;SDS011;315;48.738;9.126;2022-12-18T11:46:19;30.33;;;22.10;;
665;SDS011;315;48.738;9.126;2022-12-18T11:48:58;31.03;;;23.20;;
665;SDS011;315;48.738;9.126;2022-12-18T11:51:53;31.57;;;22.87;;
665;SDS011;315;48.738;9.126;2022-12-18T11:54:25;33.70;;;22.73;;
665;SDS011;315;48.738;9.126;2022-12-18T11:56:51;30.97;;;24.93;;
665;SDS011;315;48.738;9.126;2022-12-18T11:59:25;33.90;;;25.13;;
665;SDS011;315;48.738;9.126;2022-12-18T12:02:00;36.50;;;26.90;;
665;SDS011;315;48.738;9.126;2022-12-18T12:11:08;34.57;;;24.40;;
665;SDS011;315;48.738;9.126;2022-12-18T12:15:46;37.43;;;26.70;;
665;SDS011;315;48.738;9.126;2022-12-18T12:18:34;33.20;;;24.80;;
665;SDS011;315;48.738;9.126;2022-12-18T12:32:30;40.23;;;26.17;;
665;SDS011;315;48.738;9.126;2022-12-18T12:38:02;47.67;;;29.73;;
665;SDS011;315;48.738;9.126;2022-12-18T12:40:34;41.20;;;26.70;;
665;SDS011;315;48.738;9.126;2022-12-18T12:43:15;41.50;;;26.07;;
665;SDS011;315;48.738;9.126;2022-12-18T12:45:56;38.27;;;25.93;;
665;SDS011;315;48.738;9.126;2022-12-18T12:48:39;45.33;;;28.87;;
665;SDS011;315;48.738;9.126;2022-12-18T12:51:11;41.20;;;27.00;;
665;SDS011;315;48.738;9.126;2022-12-18T12:53:37;39.43;;;26.97;;
665;SDS011;315;48.738;9.126;2022-12-18T12:56:06;40.77;;;28.97;;
665;SDS011;315;48.738;9.126;2022-12-18T12:58:37;38.53;;;25.80;;
665;SDS011;315;48.738;9.126;2022-12-18T13:06:42;36.30;;;26.70;;
665;SDS011;315;48.738;9.126;2022-12-18T13:09:13;38.67;;;25.87;;
665;SDS011;315;48.738;9.126;2022-12-18T13:11:39;37.90;;;25.13;;
665;SDS011;315;48.738;9.126;2022-12-18T13:14:33;42.23;;;27.67;;
665;SDS011;315;48.738;9.126;2022-12-18T13:17:17;31.93;;;26.17;;
665;SDS011;315;48.738;9.126;2022-12-18T13:19:49;42.53;;;23.63;;
665;SDS011;315;48.738;9.126;2022-12-18T13:22:23;38.77;;;25.70;;
665;SDS011;315;48.738;9.126;2022-12-18T13:24:53;39.30;;;26.47;;
665;SDS011;315;48.738;9.126;2022-12-18T13:38:32;40.93;;;25.90;;
665;SDS011;315;48.738;9.126;2022-12-18T13:41:00;36.33;;;23.23;;
665;SDS011;315;48.738;9.126;2022-12-18T13:43:43;37.60;;;24.40;;
665;SDS011;315;48.738;9.126;2022-12-18T13:46:29;41.27;;;26.77;;
665;SDS011;315;48.738;9.126;2022-12-18T13:51:43;32.37;;;22.60;;
665;SDS011;315;48.738;9.126;2022-12-18T13:54:21;40.37;;;23.10;;
665;SDS011;315;48.738;9.126;2022-12-18T13:56:50;34.20;;;20.60;;
665;SDS011;315;48.738;9.126;2022-12-18T14:01:44;39.93;;;23.30;;
665;SDS011;315;48.738;9.126;2022-12-18T14:04:22;36.47;;;22.50;;
665;SDS011;315;48.738;9.126;2022-12-18T14:06:57;40.07;;;21.37;;
665;SDS011;315;48.738;9.126;2022-12-18T14:09:26;40.80;;;20.93;;
665;SDS011;315;48.738;9.126;2022-12-18T14:11:56;43.43;;;21.60;;
665;SDS011;315;48.738;9.126;2022-12-18T14:14:45;36.17;;;19.37;;
665;SDS011;315;48.738;9.126;2022-12-18T14:17:13;36.63;;;22.67;;
665;SDS011;315;48.738;9.126;2022-12-18T14:19:41;39.73;;;21.00;;
665;SDS011;315;48.738;9.126;2022-12-18T14:22:13;37.50;;;22.20;;
665;SDS011;315;48.738;9.126;2022-12-18T14:24:42;38.70;;;22.50;;
665;SDS011;315;48.738;9.126;2022-12-18T14:27:20;34.63;;;20.17;;
665;SDS011;315;48.738;9.126;2022-12-18T14:29:49;39.53;;;23.07;;
665;SDS011;315;48.738;9.126;2022-12-18T14:32:18;37.70;;;21.03;;
665;SDS011;315;48.738;9.126;2022-12-18T14:34:49;36.90;;;21.00;;
665;SDS011;315;48.738;9.126;2022-12-18T14:37:17;33.73;;;22.13;;
665;SDS011;315;48.738;9.126;2022-12-18T14:40:18;38.30;;;21.30;;
665;SDS011;315;48.738;9.126;2022-12-18T14:42:37;39.43;;;22.30;;
665;SDS011;315;48.738;9.126;2022-12-18T14:47:57;36.37;;;21.57;;
665;SDS011;315;48.738;9.126;2022-12-18T14:50:24;37.03;;;21.50;;
665;SDS011;315;48.738;9.126;2022-12-18T14:52:50;39.03;;;22.07;;
665;SDS011;315;48.738;9.126;2022-12-18T14:55:19;38.77;;;21.30;;
665;SDS011;315;48.738;9.126;2022-12-18T14:57:46;43.30;;;22.63;;
665;SDS011;315;48.738;9.126;2022-12-18T15:00:17;43.07;;;24.90;;
665;SDS011;315;48.738;9.126;2022-12-18T15:02:45;32.27;;;20.77;;
665;SDS011;315;48.738;9.126;2022-12-18T15:05:19;37.90;;;22.90;;
665;SDS011;315;48.738;9.126;2022-12-18T15:07:51;39.30;;;22.20;;
665;SDS011;315;48.738;9.126;2022-12-18T15:10:21;40.97;;;22.00;;
665;SDS011;315;48.738;9.126;2022-12-18T15:18:04;46.83;;;24.50;;
665;SDS011;315;48.738;9.126;2022-12-18T15:20:38;46.43;;;23.87;;
665;SDS011;315;48.738;9.126;2022-12-18T15:23:04;43.23;;;23.83;;
665;SDS011;315;48.738;9.126;2022-12-18T15:25:37;38.73;;;22.30;;
665;SDS011;315;48.738;9.126;2022-12-18T15:28:03;39.93;;;23.10;;
665;SDS011;315;48.738;9.126;2022-12-18T15:30:40;40.53;;;24.27;;
665;SDS011;315;48.738;9.126;2022-12-18T15:33:43;33.90;;;20.50;;
665;SDS011;315;48.738;9.126;2022-12-18T15:36:19;35.40;;;22.90;;
665;SDS011;315;48.738;9.126;2022-12-18T15:38:47;41.27;;;23.27;;
665;SDS011;315;48.738;9.126;2022-12-18T15:41:18;36.63;;;23.87;;
665;SDS011;315;48.738;9.126;2022-12-18T15:43:45;47.37;;;25.23;;
665;SDS011;315;48.738;9.126;2022-12-18T15:46:13;48.37;;;31.57;;
665;SDS011;315;48.738;9.126;2022-12-18T15:48:42;40.03;;;24.73;;
665;SDS011;315;48.738;9.126;2022-12-18T15:51:19;39.60;;;24.43;;
665;SDS011;315;48.738;9.126;2022-12-18T15:53:48;45.43;;;24.07;;
665;SDS011;315;48.738;9.126;2022-12-18T15:56:16;38.00;;;25.40;;
665;SDS011;315;48.738;9.126;2022-12-18T15:59:01;44.47;;;25.10;;
665;SDS011;315;48.738;9.126;2022-12-18T16:01:28;42.90;;;25.17;;
665;SDS011;315;48.738;9.126;2022-12-18T16:03:55;46.03;;;24.90;;
665;SDS011;315;48.738;9.126;2022-12-18T16:06:21;42.60;;;26.63;;
665;SDS011;315;48.738;9.126;2022-12-18T16:08:47;54.03;;;27.57;;
665;SDS011;315;48.738;9.126;2022-12-18T16:11:19;44.37;;;27.00;;
665;SDS011;315;48.738;9.126;2022-12-18T16:14:15;47.47;;;24.90;;
665;SDS011;315;48.738;9.126;2022-12-18T16:16:52;45.13;;;24.03;;
665;SDS011;315;48.738;9.126;2022-12-18T16:19:19;44.20;;;24.40;;
665;SDS011;315;48.738;9.126;2022-12-18T16:21:46;44.83;;;25.60;;
665;SDS011;315;48.738;9.126;2022-12-18T16:24:16;46.93;;;25.53;;
665;SDS011;315;48.738;9.126;2022-12-18T16:26:50;48.67;;;25.17;;
665;SDS011;315;48.738;9.126;2022-12-18T16:29:16;43.70;;;26.90;;
665;SDS011;315;48.738;9.126;2022-12-18T16:31:43;47.23;;;26.40;;
665;SDS011;315;48.738;9.126;2022-12-18T16:34:12;43.20;;;25.47;;
665;SDS011;315;48.738;9.126;2022-12-18T16:36:46;41.90;;;25.63;;
665;SDS011;315;48.738;9.126;2022-12-18T16:39:14;44.23;;;25.43;;
665;SDS011;315;48.738;9.126;2022-12-18T16:41:40;45.30;;;24.20;;
665;SDS011;315;48.738;9.126;2022-12-18T16:44:06;47.03;;;25.50;;
665;SDS011;315;48.738;9.126;2022-12-18T16:46:31;38.87;;;22.77;;
665;SDS011;315;48.738;9.126;2022-12-18T16:48:58;44.77;;;26.60;;
665;SDS011;315;48.738;9.126;2022-12-18T16:51:24;47.97;;;24.43;;
665;SDS011;315;48.738;9.126;2022-12-18T16:53:50;47.97;;;22.90;;
665;SDS011;315;48.738;9.126;2022-12-18T16:56:17;40.77;;;24.10;;
665;SDS011;315;48.738;9.126;2022-12-18T16:58:42;35.00;;;21.57;;
665;SDS011;315;48.738;9.126;2022-12-18T17:01:09;41.70;;;24.30;;